sensor_id;sensor_type;location;lat;lon;timestamp;pressure;altitude;pressure_sealevel;temperature;humidity
35224;BME280;21367;51.930;8.112;2023-04-06T00:00:40;101260.63;;;3.44;64.28
35224;BME280;21367;51.930;8.112;2023-04-06T00:05:47;101257.75;;;3.40;64.44
35224;BME280;21367;51.930;8.112;2023-04-06T00:10:51;101249.00;;;3.36;64.92
35224;BME280;21367;51.930;8.112;2023-04-06T00:15:55;101240.75;;;3.29;65.05
35224;BME280;21367;51.930;8.112;2023-04-06T00:21:03;101236.81;;;2.69;66.09
35224;BME280;21367;51.930;8.112;2023-04-06T00:26:07;101231.75;;;2.80;66.18
35224;BME280;21367;51.930;8.112;2023-04-06T00:31:13;101224.03;;;3.20;65.12
35224;BME280;21367;51.930;8.112;2023-04-06T00:36:19;101220.44;;;3.29;64.75
35224;BME280;21367;51.930;8.112;2023-04-06T00:41:23;101217.78;;;3.27;64.88
35224;BME280;21367;51.930;8.112;2023-04-06T00:46:28;101216.41;;;3.20;64.77
35224;BME280;21367;51.930;8.112;2023-04-06T00:51:34;101206.31;;;3.00;65.45
35224;BME280;21367;51.930;8.112;2023-04-06T00:56:38;101203.88;;;3.12;65.69
35224;BME280;21367;51.930;8.112;2023-04-06T01:01:42;101203.34;;;3.16;65.34
35224;BME280;21367;51.930;8.112;2023-04-06T01:07:04;101190.97;;;2.98;65.54
35224;BME280;21367;51.930;8.112;2023-04-06T01:12:17;101182.66;;;2.79;65.71
35224;BME280;21367;51.930;8.112;2023-04-06T01:17:21;101185.69;;;2.75;65.98
35224;BME280;21367;51.930;8.112;2023-04-06T01:22:28;101183.75;;;2.93;65.89
35224;BME280;21367;51.930;8.112;2023-04-06T01:27:36;101183.34;;;2.88;66.13
35224;BME280;21367;51.930;8.112;2023-04-06T01:32:41;101186.94;;;2.80;66.77
35224;BME280;21367;51.930;8.112;2023-04-06T01:37:51;101172.41;;;2.57;67.70
35224;BME280;21367;51.930;8.112;2023-04-06T01:43:02;101169.09;;;2.58;67.91
35224;BME280;21367;51.930;8.112;2023-04-06T01:48:12;101165.19;;;2.51;68.06
35224;BME280;21367;51.930;8.112;2023-04-06T01:53:19;101169.75;;;2.45;68.33
35224;BME280;21367;51.930;8.112;2023-04-06T01:58:26;101164.94;;;2.38;68.77
35224;BME280;21367;51.930;8.112;2023-04-06T02:03:31;101157.72;;;2.43;68.85
35224;BME280;21367;51.930;8.112;2023-04-06T02:08:44;101152.66;;;1.92;69.28
35224;BME280;21367;51.930;8.112;2023-04-06T02:13:48;101149.34;;;2.34;69.91
35224;BME280;21367;51.930;8.112;2023-04-06T02:18:52;101148.22;;;1.99;70.21
35224;BME280;21367;51.930;8.112;2023-04-06T02:23:59;101143.53;;;2.04;70.43
35224;BME280;21367;51.930;8.112;2023-04-06T02:29:03;101150.75;;;2.09;70.42
35224;BME280;21367;51.930;8.112;2023-04-06T02:34:08;101155.81;;;1.89;70.45
35224;BME280;21367;51.930;8.112;2023-04-06T02:39:19;101159.19;;;1.59;70.44
35224;BME280;21367;51.930;8.112;2023-04-06T02:44:24;101150.38;;;1.95;71.32
35224;BME280;21367;51.930;8.112;2023-04-06T02:49:28;101148.38;;;2.01;71.06
35224;BME280;21367;51.930;8.112;2023-04-06T02:54:37;101156.34;;;2.05;70.68
35224;BME280;21367;51.930;8.112;2023-04-06T02:59:41;101151.28;;;1.95;70.76
35224;BME280;21367;51.930;8.112;2023-04-06T03:04:51;101150.88;;;1.80;71.31
35224;BME280;21367;51.930;8.112;2023-04-06T03:10:11;101151.63;;;1.79;71.43
35224;BME280;21367;51.930;8.112;2023-04-06T03:15:15;101141.59;;;1.91;71.22
35224;BME280;21367;51.930;8.112;2023-04-06T03:20:24;101135.56;;;1.89;70.55
35224;BME280;21367;51.930;8.112;2023-04-06T03:25:31;101143.78;;;1.87;70.54
35224;BME280;21367;51.930;8.112;2023-04-06T03:30:38;101136.69;;;1.82;70.72
35224;BME280;21367;51.930;8.112;2023-04-06T03:35:43;101139.34;;;1.84;70.88
35224;BME280;21367;51.930;8.112;2023-04-06T03:40:51;101142.38;;;1.80;70.86
35224;BME280;21367;51.930;8.112;2023-04-06T03:45:59;101147.81;;;1.74;71.19
35224;BME280;21367;51.930;8.112;2023-04-06T03:51:04;101138.66;;;1.56;72.79
35224;BME280;21367;51.930;8.112;2023-04-06T03:56:11;101141.97;;;1.55;73.00
35224;BME280;21367;51.930;8.112;2023-04-06T04:01:16;101142.84;;;1.55;72.72
35224;BME280;21367;51.930;8.112;2023-04-06T04:06:20;101148.31;;;1.60;72.18
35224;BME280;21367;51.930;8.112;2023-04-06T04:11:27;101146.63;;;1.50;72.29
35224;BME280;21367;51.930;8.112;2023-04-06T04:16:33;101151.84;;;1.52;72.17
35224;BME280;21367;51.930;8.112;2023-04-06T04:21:42;101154.44;;;1.33;72.91
35224;BME280;21367;51.930;8.112;2023-04-06T04:26:55;101155.34;;;1.44;72.72
35224;BME280;21367;51.930;8.112;2023-04-06T04:31:59;101153.94;;;1.37;72.56
35224;BME280;21367;51.930;8.112;2023-04-06T04:37:04;101148.50;;;1.43;72.43
35224;BME280;21367;51.930;8.112;2023-04-06T04:42:28;101156.97;;;1.33;72.89
35224;BME280;21367;51.930;8.112;2023-04-06T04:47:34;101145.81;;;1.31;72.86
35224;BME280;21367;51.930;8.112;2023-04-06T04:52:41;101144.34;;;1.04;73.56
35224;BME280;21367;51.930;8.112;2023-04-06T04:57:53;101157.91;;;0.85;73.99
35224;BME280;21367;51.930;8.112;2023-04-06T05:03:18;101151.38;;;1.27;73.47
35224;BME280;21367;51.930;8.112;2023-04-06T05:08:30;101145.13;;;1.52;72.28
35224;BME280;21367;51.930;8.112;2023-04-06T05:13:38;101145.25;;;1.54;72.17
35224;BME280;21367;51.930;8.112;2023-04-06T05:18:48;101142.47;;;1.61;72.23
35224;BME280;21367;51.930;8.112;2023-04-06T05:23:52;101146.34;;;1.37;73.20
35224;BME280;21367;51.930;8.112;2023-04-06T05:28:59;101153.94;;;1.37;73.70
35224;BME280;21367;51.930;8.112;2023-04-06T05:34:07;101150.09;;;1.22;73.71
35224;BME280;21367;51.930;8.112;2023-04-06T05:39:13;101158.81;;;1.65;72.60
35224;BME280;21367;51.930;8.112;2023-04-06T05:44:30;101149.22;;;1.71;72.39
35224;BME280;21367;51.930;8.112;2023-04-06T05:49:42;101147.09;;;1.85;71.68
35224;BME280;21367;51.930;8.112;2023-04-06T05:54:54;101160.69;;;1.07;73.69
35224;BME280;21367;51.930;8.112;2023-04-06T06:00:02;101155.50;;;1.45;73.95
35224;BME280;21367;51.930;8.112;2023-04-06T06:05:21;101157.16;;;1.45;75.53
35224;BME280;21367;51.930;8.112;2023-04-06T06:10:26;101150.94;;;1.12;74.07
35224;BME280;21367;51.930;8.112;2023-04-06T06:15:33;101142.41;;;1.41;75.21
35224;BME280;21367;51.930;8.112;2023-04-06T06:20:37;101141.94;;;1.45;74.00
35224;BME280;21367;51.930;8.112;2023-04-06T06:25:41;101139.69;;;1.68;72.08
35224;BME280;21367;51.930;8.112;2023-04-06T06:30:48;101145.50;;;1.07;74.87
35224;BME280;21367;51.930;8.112;2023-04-06T06:35:56;101142.06;;;1.56;74.56
35224;BME280;21367;51.930;8.112;2023-04-06T06:41:01;101138.19;;;1.91;74.43
35224;BME280;21367;51.930;8.112;2023-04-06T06:46:11;101141.38;;;2.29;72.61
35224;BME280;21367;51.930;8.112;2023-04-06T06:51:15;101142.47;;;1.61;74.27
35224;BME280;21367;51.930;8.112;2023-04-06T06:56:20;101133.13;;;1.80;73.75
35224;BME280;21367;51.930;8.112;2023-04-06T07:01:28;101132.81;;;2.59;73.21
35224;BME280;21367;51.930;8.112;2023-04-06T07:06:32;101127.69;;;2.80;71.17
35224;BME280;21367;51.930;8.112;2023-04-06T07:11:36;101126.72;;;2.99;71.77
35224;BME280;21367;51.930;8.112;2023-04-06T07:16:43;101122.28;;;2.97;71.07
35224;BME280;21367;51.930;8.112;2023-04-06T07:21:50;101118.41;;;3.12;71.65
35224;BME280;21367;51.930;8.112;2023-04-06T07:26:54;101123.91;;;3.29;71.80
35224;BME280;21367;51.930;8.112;2023-04-06T07:32:01;101126.84;;;3.89;70.35
35224;BME280;21367;51.930;8.112;2023-04-06T07:37:06;101129.63;;;4.04;70.84
35224;BME280;21367;51.930;8.112;2023-04-06T07:42:11;101127.78;;;4.13;69.79
35224;BME280;21367;51.930;8.112;2023-04-06T07:47:17;101108.91;;;4.45;69.48
35224;BME280;21367;51.930;8.112;2023-04-06T07:52:21;101113.00;;;4.66;69.02
35224;BME280;21367;51.930;8.112;2023-04-06T07:57:26;101104.25;;;5.34;66.31
35224;BME280;21367;51.930;8.112;2023-04-06T08:02:32;101101.81;;;5.36;65.84
35224;BME280;21367;51.930;8.112;2023-04-06T08:07:36;101105.91;;;5.71;65.57
35224;BME280;21367;51.930;8.112;2023-04-06T08:12:40;101102.13;;;5.91;64.30
35224;BME280;21367;51.930;8.112;2023-04-06T08:17:47;101103.78;;;6.02;64.62
35224;BME280;21367;51.930;8.112;2023-04-06T08:22:50;101096.94;;;6.41;62.33
35224;BME280;21367;51.930;8.112;2023-04-06T08:27:54;101099.19;;;7.03;61.43
35224;BME280;21367;51.930;8.112;2023-04-06T08:33:00;101101.03;;;7.18;60.18
35224;BME280;21367;51.930;8.112;2023-04-06T08:38:04;101092.31;;;7.30;58.54
35224;BME280;21367;51.930;8.112;2023-04-06T08:43:12;101095.63;;;7.70;55.20
35224;BME280;21367;51.930;8.112;2023-04-06T08:48:20;101094.63;;;7.96;54.14
35224;BME280;21367;51.930;8.112;2023-04-06T08:53:25;101082.88;;;8.29;53.21
35224;BME280;21367;51.930;8.112;2023-04-06T08:58:32;101087.91;;;8.43;53.17
35224;BME280;21367;51.930;8.112;2023-04-06T09:03:40;101082.81;;;8.74;52.29
35224;BME280;21367;51.930;8.112;2023-04-06T09:08:44;101085.69;;;8.95;53.33
35224;BME280;21367;51.930;8.112;2023-04-06T09:13:50;101072.53;;;8.89;51.95
35224;BME280;21367;51.930;8.112;2023-04-06T09:19:03;101074.16;;;9.34;53.91
35224;BME280;21367;51.930;8.112;2023-04-06T09:24:07;101070.91;;;9.71;50.64
35224;BME280;21367;51.930;8.112;2023-04-06T09:29:23;101069.00;;;9.67;50.16
35224;BME280;21367;51.930;8.112;2023-04-06T09:34:31;101066.41;;;9.83;49.91
35224;BME280;21367;51.930;8.112;2023-04-06T09:39:34;101071.78;;;10.06;49.89
35224;BME280;21367;51.930;8.112;2023-04-06T09:44:39;101071.28;;;9.95;50.28
35224;BME280;21367;51.930;8.112;2023-04-06T09:49:46;101062.00;;;10.31;50.38
35224;BME280;21367;51.930;8.112;2023-04-06T09:54:51;101063.81;;;10.87;49.00
35224;BME280;21367;51.930;8.112;2023-04-06T10:00:02;101068.72;;;10.83;50.39
35224;BME280;21367;51.930;8.112;2023-04-06T10:05:19;101059.38;;;11.22;49.84
35224;BME280;21367;51.930;8.112;2023-04-06T10:15:42;101051.44;;;11.37;49.56
35224;BME280;21367;51.930;8.112;2023-04-06T10:20:51;101053.78;;;11.91;49.44
35224;BME280;21367;51.930;8.112;2023-04-06T10:25:59;101043.72;;;11.37;47.09
35224;BME280;21367;51.930;8.112;2023-04-06T10:31:07;101038.72;;;12.21;46.34
35224;BME280;21367;51.930;8.112;2023-04-06T10:36:15;101039.53;;;11.99;47.39
35224;BME280;21367;51.930;8.112;2023-04-06T10:41:19;101027.19;;;12.55;45.27
35224;BME280;21367;51.930;8.112;2023-04-06T10:46:26;101025.47;;;12.33;45.10
35224;BME280;21367;51.930;8.112;2023-04-06T10:51:33;101017.88;;;12.81;45.76
35224;BME280;21367;51.930;8.112;2023-04-06T10:56:41;101020.84;;;12.69;44.02
35224;BME280;21367;51.930;8.112;2023-04-06T11:01:45;101019.66;;;13.52;45.70
35224;BME280;21367;51.930;8.112;2023-04-06T11:06:53;101009.22;;;13.49;42.21
35224;BME280;21367;51.930;8.112;2023-04-06T11:11:58;101010.72;;;13.68;43.13
35224;BME280;21367;51.930;8.112;2023-04-06T11:17:03;101017.13;;;14.32;42.63
35224;BME280;21367;51.930;8.112;2023-04-06T11:22:11;101009.78;;;14.17;41.36
35224;BME280;21367;51.930;8.112;2023-04-06T11:27:16;101003.50;;;14.36;42.13
35224;BME280;21367;51.930;8.112;2023-04-06T11:32:21;101002.69;;;14.66;41.25
35224;BME280;21367;51.930;8.112;2023-04-06T11:37:29;101002.84;;;14.70;44.33
35224;BME280;21367;51.930;8.112;2023-04-06T11:42:34;100995.25;;;15.68;38.28
35224;BME280;21367;51.930;8.112;2023-04-06T11:47:38;100985.50;;;16.69;35.89
35224;BME280;21367;51.930;8.112;2023-04-06T11:52:45;100990.78;;;16.34;36.47
35224;BME280;21367;51.930;8.112;2023-04-06T11:57:49;100979.53;;;15.97;35.94
35224;BME280;21367;51.930;8.112;2023-04-06T12:02:57;100978.50;;;15.24;36.64
35224;BME280;21367;51.930;8.112;2023-04-06T12:08:06;100973.31;;;15.24;38.33
35224;BME280;21367;51.930;8.112;2023-04-06T12:13:10;100977.03;;;16.00;37.02
35224;BME280;21367;51.930;8.112;2023-04-06T12:18:15;100966.44;;;16.27;35.25
35224;BME280;21367;51.930;8.112;2023-04-06T12:23:22;100966.41;;;15.89;36.24
35224;BME280;21367;51.930;8.112;2023-04-06T12:28:30;100958.59;;;16.26;34.70
35224;BME280;21367;51.930;8.112;2023-04-06T12:33:34;100961.66;;;16.46;35.68
35224;BME280;21367;51.930;8.112;2023-04-06T12:38:41;100953.53;;;18.11;33.63
35224;BME280;21367;51.930;8.112;2023-04-06T12:43:48;100952.84;;;16.01;37.35
35224;BME280;21367;51.930;8.112;2023-04-06T12:48:52;100951.38;;;16.90;36.75
35224;BME280;21367;51.930;8.112;2023-04-06T12:54:00;100944.63;;;17.45;33.82
35224;BME280;21367;51.930;8.112;2023-04-06T12:59:05;100939.31;;;17.89;34.82
35224;BME280;21367;51.930;8.112;2023-04-06T13:04:09;100936.44;;;17.23;34.67
35224;BME280;21367;51.930;8.112;2023-04-06T13:09:16;100934.22;;;17.45;34.02
35224;BME280;21367;51.930;8.112;2023-04-06T13:14:21;100921.97;;;17.38;33.49
35224;BME280;21367;51.930;8.112;2023-04-06T13:19:25;100924.03;;;17.57;32.48
35224;BME280;21367;51.930;8.112;2023-04-06T13:24:32;100926.00;;;16.76;33.13
35224;BME280;21367;51.930;8.112;2023-04-06T13:29:38;100935.63;;;16.82;32.20
35224;BME280;21367;51.930;8.112;2023-04-06T13:34:42;100920.09;;;17.29;31.94
35224;BME280;21367;51.930;8.112;2023-04-06T13:39:49;100921.44;;;16.25;31.81
35224;BME280;21367;51.930;8.112;2023-04-06T13:44:53;100922.44;;;16.73;33.76
35224;BME280;21367;51.930;8.112;2023-04-06T13:49:57;100915.44;;;15.57;33.23
35224;BME280;21367;51.930;8.112;2023-04-06T13:55:05;100912.84;;;16.29;33.72
35224;BME280;21367;51.930;8.112;2023-04-06T14:00:10;100918.84;;;16.25;32.69
35224;BME280;21367;51.930;8.112;2023-04-06T14:05:16;100915.03;;;16.49;32.65
35224;BME280;21367;51.930;8.112;2023-04-06T14:10:23;100913.44;;;16.16;32.88
35224;BME280;21367;51.930;8.112;2023-04-06T14:15:28;100906.66;;;16.23;33.27
35224;BME280;21367;51.930;8.112;2023-04-06T14:20:32;100912.31;;;16.44;33.40
35224;BME280;21367;51.930;8.112;2023-04-06T14:25:39;100905.38;;;15.34;34.93
35224;BME280;21367;51.930;8.112;2023-04-06T14:30:43;100900.28;;;15.70;34.80
35224;BME280;21367;51.930;8.112;2023-04-06T14:35:47;100899.31;;;16.03;35.07
35224;BME280;21367;51.930;8.112;2023-04-06T14:40:54;100897.59;;;15.33;36.52
35224;BME280;21367;51.930;8.112;2023-04-06T14:46:00;100896.28;;;15.48;36.95
35224;BME280;21367;51.930;8.112;2023-04-06T14:51:05;100894.81;;;14.93;37.42
35224;BME280;21367;51.930;8.112;2023-04-06T14:56:12;100889.03;;;15.03;37.72
35224;BME280;21367;51.930;8.112;2023-04-06T15:01:17;100885.81;;;15.11;37.94
35224;BME280;21367;51.930;8.112;2023-04-06T15:06:21;100878.19;;;15.17;36.68
35224;BME280;21367;51.930;8.112;2023-04-06T15:11:29;100880.59;;;15.44;37.90
35224;BME280;21367;51.930;8.112;2023-04-06T15:16:33;100882.75;;;14.94;38.65
35224;BME280;21367;51.930;8.112;2023-04-06T15:21:37;100871.59;;;14.96;38.89
35224;BME280;21367;51.930;8.112;2023-04-06T15:26:46;100870.69;;;14.94;39.51
35224;BME280;21367;51.930;8.112;2023-04-06T15:31:50;100862.63;;;14.52;40.42
35224;BME280;21367;51.930;8.112;2023-04-06T15:36:54;100868.50;;;14.76;40.76
35224;BME280;21367;51.930;8.112;2023-04-06T15:42:03;100862.06;;;14.05;42.69
35224;BME280;21367;51.930;8.112;2023-04-06T15:47:07;100868.56;;;14.21;41.75
35224;BME280;21367;51.930;8.112;2023-04-06T15:52:11;100869.59;;;13.70;43.09
35224;BME280;21367;51.930;8.112;2023-04-06T15:57:18;100863.91;;;13.80;43.90
35224;BME280;21367;51.930;8.112;2023-04-06T16:02:22;100876.19;;;13.60;45.06
35224;BME280;21367;51.930;8.112;2023-04-06T16:07:26;100875.38;;;13.12;46.95
35224;BME280;21367;51.930;8.112;2023-04-06T16:12:33;100873.44;;;13.29;47.21
35224;BME280;21367;51.930;8.112;2023-04-06T16:17:38;100879.13;;;13.20;48.36
35224;BME280;21367;51.930;8.112;2023-04-06T16:22:42;100889.63;;;13.01;49.12
35224;BME280;21367;51.930;8.112;2023-04-06T16:27:51;100888.06;;;13.06;49.15
35224;BME280;21367;51.930;8.112;2023-04-06T16:32:55;100885.06;;;12.93;49.39
35224;BME280;21367;51.930;8.112;2023-04-06T16:37:59;100887.28;;;12.83;50.43
35224;BME280;21367;51.930;8.112;2023-04-06T16:43:06;100882.75;;;12.77;51.07
35224;BME280;21367;51.930;8.112;2023-04-06T16:48:11;100887.19;;;13.05;49.44
35224;BME280;21367;51.930;8.112;2023-04-06T16:53:15;100889.00;;;13.08;49.51
35224;BME280;21367;51.930;8.112;2023-04-06T16:58:22;100884.47;;;13.01;49.54
35224;BME280;21367;51.930;8.112;2023-04-06T17:03:26;100883.63;;;12.78;49.95
35224;BME280;21367;51.930;8.112;2023-04-06T17:08:30;100884.47;;;12.77;50.07
35224;BME280;21367;51.930;8.112;2023-04-06T17:13:36;100885.78;;;12.65;49.93
35224;BME280;21367;51.930;8.112;2023-04-06T17:18:40;100882.19;;;12.62;48.91
35224;BME280;21367;51.930;8.112;2023-04-06T17:23:45;100885.19;;;12.26;49.31
35224;BME280;21367;51.930;8.112;2023-04-06T17:28:52;100891.13;;;12.02;50.35
35224;BME280;21367;51.930;8.112;2023-04-06T17:33:56;100895.53;;;12.27;50.73
35224;BME280;21367;51.930;8.112;2023-04-06T17:39:00;100902.97;;;11.76;51.68
35224;BME280;21367;51.930;8.112;2023-04-06T17:44:08;100907.94;;;11.93;51.41
35224;BME280;21367;51.930;8.112;2023-04-06T17:49:12;100911.81;;;11.41;54.21
35224;BME280;21367;51.930;8.112;2023-04-06T17:54:16;100919.53;;;11.41;55.16
35224;BME280;21367;51.930;8.112;2023-04-06T17:59:23;100926.81;;;11.11;56.73
35224;BME280;21367;51.930;8.112;2023-04-06T18:04:27;100932.16;;;11.35;56.53
35224;BME280;21367;51.930;8.112;2023-04-06T18:09:32;100933.13;;;10.98;57.74
35224;BME280;21367;51.930;8.112;2023-04-06T18:14:41;100949.16;;;10.73;59.53
35224;BME280;21367;51.930;8.112;2023-04-06T18:19:46;100948.88;;;10.67;61.98
35224;BME280;21367;51.930;8.112;2023-04-06T18:24:49;100959.31;;;10.52;64.31
35224;BME280;21367;51.930;8.112;2023-04-06T18:29:56;100964.78;;;10.23;66.90
35224;BME280;21367;51.930;8.112;2023-04-06T18:35:01;100969.69;;;10.00;67.88
35224;BME280;21367;51.930;8.112;2023-04-06T18:40:09;100969.16;;;10.07;68.14
35224;BME280;21367;51.930;8.112;2023-04-06T18:45:37;100978.28;;;9.66;70.47
35224;BME280;21367;51.930;8.112;2023-04-06T18:50:50;100986.81;;;9.65;71.69
35224;BME280;21367;51.930;8.112;2023-04-06T18:56:00;100995.69;;;9.56;72.33
35224;BME280;21367;51.930;8.112;2023-04-06T19:01:07;100986.81;;;9.65;72.84
35224;BME280;21367;51.930;8.112;2023-04-06T19:06:13;100997.06;;;9.49;74.57
35224;BME280;21367;51.930;8.112;2023-04-06T19:11:17;100988.69;;;9.35;75.51
35224;BME280;21367;51.930;8.112;2023-04-06T19:16:25;100986.91;;;9.18;76.50
35224;BME280;21367;51.930;8.112;2023-04-06T19:21:30;100993.97;;;9.06;77.14
35224;BME280;21367;51.930;8.112;2023-04-06T19:26:34;100991.16;;;9.17;77.12
35224;BME280;21367;51.930;8.112;2023-04-06T19:31:41;100992.69;;;8.97;78.73
35224;BME280;21367;51.930;8.112;2023-04-06T19:36:45;100987.41;;;9.11;78.57
35224;BME280;21367;51.930;8.112;2023-04-06T19:41:49;100993.69;;;8.99;78.97
35224;BME280;21367;51.930;8.112;2023-04-06T19:46:56;100994.22;;;8.77;80.63
35224;BME280;21367;51.930;8.112;2023-04-06T19:52:01;100986.56;;;8.63;81.17
35224;BME280;21367;51.930;8.112;2023-04-06T19:57:05;100995.88;;;8.46;83.39
35224;BME280;21367;51.930;8.112;2023-04-06T20:02:13;100992.28;;;8.42;84.46
35224;BME280;21367;51.930;8.112;2023-04-06T20:07:18;100981.19;;;8.58;84.66
35224;BME280;21367;51.930;8.112;2023-04-06T20:12:22;100977.56;;;8.54;86.02
35224;BME280;21367;51.930;8.112;2023-04-06T20:17:29;100973.91;;;8.34;87.38
35224;BME280;21367;51.930;8.112;2023-04-06T20:22:35;100983.72;;;8.42;87.06
35224;BME280;21367;51.930;8.112;2023-04-06T20:27:39;100980.03;;;8.22;88.48
35224;BME280;21367;51.930;8.112;2023-04-06T20:32:47;100982.06;;;8.27;88.53
35224;BME280;21367;51.930;8.112;2023-04-06T20:37:51;100974.63;;;8.32;88.50
35224;BME280;21367;51.930;8.112;2023-04-06T20:42:56;100978.25;;;8.21;90.36
35224;BME280;21367;51.930;8.112;2023-04-06T20:48:04;100976.31;;;8.17;90.22
35224;BME280;21367;51.930;8.112;2023-04-06T20:53:08;100966.66;;;8.42;89.71
35224;BME280;21367;51.930;8.112;2023-04-06T20:58:13;100968.22;;;8.09;91.86
35224;BME280;21367;51.930;8.112;2023-04-06T21:03:23;100957.53;;;8.16;92.54
35224;BME280;21367;51.930;8.112;2023-04-06T21:08:29;100960.78;;;8.14;92.32
35224;BME280;21367;51.930;8.112;2023-04-06T21:13:34;100962.38;;;8.11;94.07
35224;BME280;21367;51.930;8.112;2023-04-06T21:18:41;100953.41;;;8.03;92.79
35224;BME280;21367;51.930;8.112;2023-04-06T21:23:51;100954.50;;;8.23;91.92
35224;BME280;21367;51.930;8.112;2023-04-06T21:34:52;100948.75;;;7.67;95.38
35224;BME280;21367;51.930;8.112;2023-04-06T21:39:57;100933.69;;;7.71;96.33
35224;BME280;21367;51.930;8.112;2023-04-06T21:45:11;100940.72;;;7.60;96.35
35224;BME280;21367;51.930;8.112;2023-04-06T21:50:19;100932.25;;;7.76;96.29
35224;BME280;21367;51.930;8.112;2023-04-06T21:55:28;100927.56;;;7.69;96.03
35224;BME280;21367;51.930;8.112;2023-04-06T22:00:34;100921.84;;;7.44;96.34
35224;BME280;21367;51.930;8.112;2023-04-06T22:05:41;100926.44;;;7.34;97.02
35224;BME280;21367;51.930;8.112;2023-04-06T22:11:09;100917.63;;;7.44;96.03
35224;BME280;21367;51.930;8.112;2023-04-06T22:16:14;100909.53;;;7.36;96.90
35224;BME280;21367;51.930;8.112;2023-04-06T22:21:21;100905.34;;;7.38;97.92
35224;BME280;21367;51.930;8.112;2023-04-06T22:26:30;100910.44;;;7.24;96.91
35224;BME280;21367;51.930;8.112;2023-04-06T22:31:35;100911.53;;;7.27;97.74
35224;BME280;21367;51.930;8.112;2023-04-06T22:36:49;100909.84;;;7.28;97.72
35224;BME280;21367;51.930;8.112;2023-04-06T22:41:54;100911.03;;;7.05;98.81
35224;BME280;21367;51.930;8.112;2023-04-06T22:47:00;100907.47;;;7.16;100.00
35224;BME280;21367;51.930;8.112;2023-04-06T22:52:07;100910.28;;;7.21;99.12
35224;BME280;21367;51.930;8.112;2023-04-06T22:57:11;100905.06;;;7.04;99.19
35224;BME280;21367;51.930;8.112;2023-04-06T23:02:16;100903.69;;;7.24;99.13
35224;BME280;21367;51.930;8.112;2023-04-06T23:13:02;100895.97;;;6.94;100.00
35224;BME280;21367;51.930;8.112;2023-04-06T23:18:08;100888.44;;;6.83;99.53
35224;BME280;21367;51.930;8.112;2023-04-06T23:23:11;100898.78;;;6.84;100.00
35224;BME280;21367;51.930;8.112;2023-04-06T23:28:20;100887.81;;;7.15;100.00
35224;BME280;21367;51.930;8.112;2023-04-06T23:33:24;100888.50;;;7.12;100.00
35224;BME280;21367;51.930;8.112;2023-04-06T23:38:28;100884.59;;;7.04;100.00
35224;BME280;21367;51.930;8.112;2023-04-06T23:43:35;100882.56;;;6.84;100.00
35224;BME280;21367;51.930;8.112;2023-04-06T23:48:40;100884.19;;;6.68;100.00
35224;BME280;21367;51.930;8.112;2023-04-06T23:53:44;100885.06;;;7.12;100.00
35224;BME280;21367;51.930;8.112;2023-04-06T23:58:51;100880.84;;;6.69;100.00
